Terminal Aerodrome Forecast
Issued by NWS Nashville, TN

Home | Current Version | Previous Version | Text Only | Print | Product List | Glossary On
Versions: 1 2 3 4 5 6 7 8 9 10 11 12 13 14 15 16 17 18 19 20
853
FTUS44 KOHX 211730
TAFCSV
TAF
KCSV 211730Z 2118/2218 12005KT P6SM SKC
     FM220800 15005KT P6SM OVC150
     FM221200 13007KT P6SM VCSH BKN035 OVC100
     FM221500 12008KT 5SM -SHRA BKN012 OVC025=

USA.gov is the U.S. government's official web portal to all federal, state and local government web resources and services.